Adamsville, Utah
Current Conditions -  °F | °C
As of 8:52 AM on Thursday 29 Jan 2015 (Local Time) from KMLF Reporting Station
Haze Haze  
Wind Chill: 34°   Ceiling: Unl
Heat Index: 34°   Visibility: 4mi
Dew Point: 31°   Wind: 0mph
Humidity: 89%   Direction: NA
Pressure: 30.33"   Gusts: NA
Location:  38.2672°N, 112.728°W
Report Text: KMLF 291552Z AUTO 00000KT 4SM BR CLR 01/M01 A3033 RMK AO2 SLP276 T00111006 TSNO
Loading
Personal Weather Stations






























Interactive Weather Map New forecast layout! Learn more

10-Day Weather Forecast

Advertisements
Track Severe Weather on mobile